createdAt,value
2023-03-04T00:00:11.881Z,48.74
2023-03-04T00:01:11.891Z,49.66
2023-03-04T00:02:11.952Z,51.79
2023-03-04T00:03:12.005Z,50.43
2023-03-04T00:04:11.866Z,50.51
2023-03-04T00:05:11.893Z,48.22
2023-03-04T00:06:11.863Z,51.32
2023-03-04T00:07:11.843Z,48.10
2023-03-04T00:08:11.858Z,47.85
2023-03-04T00:09:11.830Z,47.91
2023-03-04T00:10:11.814Z,48.73
2023-03-04T00:11:11.818Z,49.99
2023-03-04T00:12:11.817Z,49.98
2023-03-04T00:13:11.810Z,49.69
2023-03-04T00:14:11.822Z,48.92
2023-03-04T00:15:11.809Z,47.64
2023-03-04T00:16:11.896Z,47.73
2023-03-04T00:17:11.787Z,47.89
2023-03-04T00:18:11.786Z,48.08
2023-03-04T00:19:11.771Z,49.34
2023-03-04T00:20:11.821Z,50.84
2023-03-04T00:21:11.799Z,51.18
2023-03-04T00:22:11.746Z,51.49
2023-03-04T00:23:11.778Z,51.55
2023-03-04T00:24:11.745Z,54.95
2023-03-04T00:25:11.769Z,52.69
2023-03-04T00:26:11.739Z,53.35
2023-03-04T00:27:11.718Z,50.71
2023-03-04T00:28:11.767Z,52.57
2023-03-04T00:29:11.719Z,48.49
2023-03-04T00:30:11.734Z,50.59
2023-03-04T00:31:11.778Z,48.94
2023-03-04T00:32:11.857Z,49.94
2023-03-04T00:33:11.703Z,50.67
2023-03-04T00:34:11.707Z,49.12
2023-03-04T00:35:11.723Z,49.42
2023-03-04T00:36:11.684Z,48.22
2023-03-04T00:37:11.690Z,48.12
2023-03-04T00:38:11.676Z,48.57
2023-03-04T00:39:11.652Z,47.89
2023-03-04T00:40:11.652Z,48.17
2023-03-04T00:41:11.660Z,50.12
2023-03-04T00:42:11.683Z,49.32
2023-03-04T00:43:11.655Z,49.28
2023-03-04T00:44:11.632Z,51.01
2023-03-04T00:45:11.638Z,48.07
2023-03-04T00:46:11.672Z,48.27
2023-03-04T00:47:11.671Z,49.15
2023-03-04T00:48:11.622Z,47.79
2023-03-04T00:49:11.604Z,47.80
2023-03-04T00:50:11.614Z,48.59
2023-03-04T00:51:11.601Z,48.22
2023-03-04T00:52:11.609Z,48.93
2023-03-04T00:53:11.573Z,49.49
2023-03-04T00:54:11.596Z,48.66
2023-03-04T00:55:11.568Z,47.86
2023-03-04T00:56:11.607Z,49.15
2023-03-04T00:57:11.568Z,50.05
2023-03-04T00:58:11.615Z,48.26
2023-03-04T00:59:11.547Z,48.50
2023-03-04T01:00:11.559Z,49.18
2023-03-04T01:01:11.566Z,49.24
2023-03-04T01:02:11.574Z,51.71
2023-03-04T01:03:11.572Z,48.76
2023-03-04T01:04:11.560Z,48.52
2023-03-04T01:05:11.563Z,49.64
2023-03-04T01:06:11.544Z,51.58
2023-03-04T01:07:11.528Z,51.58
2023-03-04T01:08:11.496Z,53.66
2023-03-04T01:09:11.492Z,49.05
2023-03-04T01:10:11.527Z,48.05
2023-03-04T01:11:11.496Z,49.00
2023-03-04T01:12:11.488Z,48.00
2023-03-04T01:13:11.486Z,51.66
2023-03-04T01:14:11.461Z,49.04
2023-03-04T01:15:11.502Z,48.12
2023-03-04T01:16:11.488Z,47.92
2023-03-04T01:17:11.450Z,47.78
2023-03-04T01:18:11.516Z,48.60
2023-03-04T01:19:11.466Z,48.22
2023-03-04T01:20:11.477Z,48.47
2023-03-04T01:21:11.408Z,48.10
2023-03-04T01:22:11.437Z,48.02
2023-03-04T01:23:11.424Z,48.81
2023-03-04T01:24:11.399Z,49.84
2023-03-04T01:25:11.430Z,49.93
2023-03-04T01:26:11.403Z,49.20
2023-03-04T01:27:11.424Z,49.78
2023-03-04T01:28:11.408Z,48.90
2023-03-04T01:29:11.368Z,48.05
2023-03-04T01:30:11.374Z,50.58
2023-03-04T01:31:11.405Z,49.17
2023-03-04T01:32:11.392Z,47.72
2023-03-04T01:33:11.346Z,47.69
2023-03-04T01:34:11.353Z,47.77
2023-03-04T01:35:11.366Z,48.36
2023-03-04T01:36:11.373Z,48.44
2023-03-04T01:37:11.351Z,47.78
2023-03-04T01:38:11.353Z,47.73
2023-03-04T01:39:11.323Z,47.78
2023-03-04T01:40:11.331Z,47.71
2023-03-04T01:41:11.312Z,47.74
2023-03-04T01:42:11.327Z,47.71
2023-03-04T01:43:11.341Z,49.52
2023-03-04T01:44:11.307Z,48.87
2023-03-04T01:45:11.305Z,47.95
2023-03-04T01:46:11.315Z,50.02
2023-03-04T01:47:11.283Z,47.75
2023-03-04T01:48:11.309Z,47.82
2023-03-04T01:49:11.338Z,48.04
2023-03-04T01:50:11.269Z,48.59
2023-03-04T01:51:11.251Z,48.06
2023-03-04T01:52:11.286Z,50.49
2023-03-04T01:53:11.280Z,48.69
2023-03-04T01:54:11.253Z,47.58
2023-03-04T01:55:11.251Z,47.64
2023-03-04T01:56:11.275Z,49.64
2023-03-04T01:57:11.222Z,48.80
2023-03-04T01:58:11.222Z,48.09
2023-03-04T01:59:11.251Z,48.21
2023-03-04T02:00:11.224Z,50.55
2023-03-04T02:01:11.267Z,48.14
2023-03-04T02:02:11.202Z,49.11
2023-03-04T02:03:11.186Z,48.67
2023-03-04T02:04:11.247Z,47.54
2023-03-04T02:05:11.215Z,47.52
2023-03-04T02:06:11.173Z,47.51
2023-03-04T02:07:11.181Z,47.56
2023-03-04T02:08:11.148Z,47.50
2023-03-04T02:09:11.186Z,47.51
2023-03-04T02:10:11.157Z,47.53
2023-03-04T02:11:11.161Z,48.70
2023-03-04T02:12:11.195Z,50.43
2023-03-04T02:13:11.113Z,48.50
2023-03-04T02:14:11.142Z,47.72
2023-03-04T02:15:11.143Z,48.58
2023-03-04T02:16:11.216Z,47.75
2023-03-04T02:17:11.144Z,47.93
2023-03-04T02:18:11.135Z,48.60
2023-03-04T02:19:11.123Z,48.02
2023-03-04T02:20:11.107Z,47.75
2023-03-04T02:21:11.110Z,48.75
2023-03-04T02:22:11.109Z,47.93
2023-03-04T02:23:11.077Z,47.76
2023-03-04T02:24:11.068Z,47.65
2023-03-04T02:25:11.086Z,47.44
2023-03-04T02:26:11.094Z,47.78
2023-03-04T02:27:11.099Z,47.60
2023-03-04T02:28:11.080Z,47.68
2023-03-04T02:29:11.058Z,48.58
2023-03-04T02:30:11.048Z,47.71
2023-03-04T02:31:11.139Z,48.58
2023-03-04T02:32:11.051Z,47.62
2023-03-04T02:33:11.085Z,47.98
2023-03-04T02:34:11.118Z,47.60
2023-03-04T02:35:11.019Z,49.39
2023-03-04T02:36:11.010Z,47.59
2023-03-04T02:37:11.032Z,47.63
2023-03-04T02:38:10.983Z,47.58
2023-03-04T02:39:10.978Z,48.02
2023-03-04T02:40:10.972Z,48.01
2023-03-04T02:41:10.996Z,49.22
2023-03-04T02:42:11.003Z,48.46
2023-03-04T02:43:11.008Z,48.77
2023-03-04T02:44:10.989Z,56.92
2023-03-04T02:45:10.969Z,50.97
2023-03-04T02:46:11.002Z,48.91
2023-03-04T02:47:10.949Z,51.25
2023-03-04T02:48:10.959Z,52.12
2023-03-04T02:49:10.919Z,50.21
2023-03-04T02:50:10.912Z,48.52
2023-03-04T02:51:10.945Z,47.94
2023-03-04T02:52:10.927Z,48.66
2023-03-04T02:53:10.935Z,48.56
2023-03-04T02:54:10.899Z,47.63
2023-03-04T02:55:10.880Z,47.71
2023-03-04T02:56:10.890Z,49.27
2023-03-04T02:57:10.900Z,47.64
2023-03-04T02:58:10.907Z,49.12
2023-03-04T02:59:10.880Z,49.77
2023-03-04T03:00:10.871Z,47.84
2023-03-04T03:01:10.839Z,47.58
2023-03-04T03:02:10.856Z,47.80
2023-03-04T03:03:10.863Z,48.99
2023-03-04T03:04:10.838Z,48.73
2023-03-04T03:05:10.871Z,48.21
2023-03-04T03:06:10.837Z,47.84
2023-03-04T03:07:10.822Z,47.66
2023-03-04T03:08:10.812Z,49.54
2023-03-04T03:09:10.814Z,48.89
2023-03-04T03:10:10.824Z,48.57
2023-03-04T03:11:10.802Z,47.95
2023-03-04T03:12:10.821Z,47.52
2023-03-04T03:13:10.784Z,47.87
2023-03-04T03:14:10.827Z,47.52
2023-03-04T03:15:10.768Z,47.53
2023-03-04T03:16:10.789Z,47.47
2023-03-04T03:17:10.796Z,49.96
2023-03-04T03:18:10.733Z,47.44
2023-03-04T03:19:11.171Z,47.98
2023-03-04T03:20:10.757Z,48.60
2023-03-04T03:21:10.765Z,48.81
2023-03-04T03:22:10.750Z,47.59
2023-03-04T03:23:10.718Z,48.26
2023-03-04T03:24:10.709Z,47.54
2023-03-04T03:25:10.700Z,47.81
2023-03-04T03:26:10.741Z,47.75
2023-03-04T03:27:10.714Z,47.69
2023-03-04T03:28:10.692Z,48.51
2023-03-04T03:29:10.715Z,48.81
2023-03-04T03:30:10.747Z,47.63
2023-03-04T03:31:10.741Z,47.67
2023-03-04T03:32:10.759Z,48.26
2023-03-04T03:33:10.683Z,47.76
2023-03-04T03:34:10.679Z,48.40
2023-03-04T03:35:10.675Z,49.20
2023-03-04T03:36:10.714Z,51.39
2023-03-04T03:37:10.662Z,48.21
2023-03-04T03:38:10.628Z,47.98
2023-03-04T03:39:10.643Z,50.55
2023-03-04T03:40:10.656Z,50.15
2023-03-04T03:41:10.690Z,47.82
2023-03-04T03:42:10.626Z,48.02
2023-03-04T03:43:10.637Z,47.47
2023-03-04T03:44:10.604Z,47.84
2023-03-04T03:45:10.602Z,48.33
2023-03-04T03:46:10.659Z,48.38
2023-03-04T03:47:10.649Z,47.77
2023-03-04T03:48:10.623Z,48.84
2023-03-04T03:49:10.580Z,48.55
2023-03-04T03:50:10.579Z,48.52
2023-03-04T03:51:10.565Z,49.45
2023-03-04T03:52:10.597Z,51.90
2023-03-04T03:53:10.569Z,47.54
2023-03-04T03:54:11.559Z,47.74
2023-03-04T03:55:10.561Z,48.67
2023-03-04T03:56:10.516Z,48.50
2023-03-04T03:57:10.528Z,47.47
2023-03-04T03:58:10.565Z,50.16
2023-03-04T03:59:10.546Z,47.90
2023-03-04T04:00:10.552Z,47.56
2023-03-04T04:01:10.499Z,47.75
2023-03-04T04:02:10.612Z,48.07
2023-03-04T04:03:10.492Z,47.81
2023-03-04T04:04:10.540Z,49.25
2023-03-04T04:05:10.494Z,48.25
2023-03-04T04:06:10.514Z,48.45
2023-03-04T04:07:10.463Z,48.10
2023-03-04T04:08:10.458Z,50.10
2023-03-04T04:09:10.495Z,47.65
2023-03-04T04:10:10.455Z,47.61
2023-03-04T04:11:10.438Z,49.47
2023-03-04T04:12:10.436Z,50.03
2023-03-04T04:13:10.433Z,47.50
2023-03-04T04:14:10.464Z,48.36
2023-03-04T04:15:10.453Z,47.90
2023-03-04T04:16:10.455Z,49.70
2023-03-04T04:17:10.447Z,49.16
2023-03-04T04:18:10.413Z,48.96
2023-03-04T04:19:10.436Z,47.84
2023-03-04T04:20:10.421Z,50.20
2023-03-04T04:21:10.386Z,48.09
2023-03-04T04:22:10.404Z,48.24
2023-03-04T04:23:10.379Z,48.35
2023-03-04T04:24:10.426Z,49.09
2023-03-04T04:25:10.421Z,51.08
2023-03-04T04:26:10.364Z,48.28
2023-03-04T04:27:10.351Z,49.11
2023-03-04T04:28:10.362Z,49.90
2023-03-04T04:29:10.394Z,47.64
2023-03-04T04:30:10.387Z,49.32
2023-03-04T04:31:10.389Z,50.06
2023-03-04T04:32:10.340Z,51.83
2023-03-04T04:33:11.318Z,48.96
2023-03-04T04:34:10.311Z,47.54
2023-03-04T04:35:10.361Z,49.05
2023-03-04T04:36:10.308Z,49.54
2023-03-04T04:37:10.319Z,49.74
2023-03-04T04:38:10.372Z,47.50
2023-03-04T04:39:10.279Z,49.42
2023-03-04T04:40:10.297Z,47.76
2023-03-04T04:41:10.277Z,47.96
2023-03-04T04:42:10.263Z,47.79
2023-03-04T04:43:10.257Z,47.45
2023-03-04T04:44:10.257Z,48.08
2023-03-04T04:45:10.281Z,47.63
2023-03-04T04:46:10.296Z,47.98
2023-03-04T04:47:10.269Z,48.84
2023-03-04T04:48:10.235Z,49.05
2023-03-04T04:49:10.251Z,47.96
2023-03-04T04:50:10.231Z,47.90
2023-03-04T04:51:10.211Z,47.47
2023-03-04T04:52:10.222Z,47.46
2023-03-04T04:53:10.252Z,47.38
2023-03-04T04:54:10.238Z,48.84
2023-03-04T04:55:10.228Z,47.55
2023-03-04T04:56:10.177Z,47.42
2023-03-04T04:57:10.231Z,47.20
2023-03-04T04:58:10.248Z,47.53
2023-03-04T04:59:10.177Z,47.69
2023-03-04T05:00:10.180Z,47.63
2023-03-04T05:01:10.214Z,47.75
2023-03-04T05:02:10.183Z,48.82
2023-03-04T05:03:10.245Z,47.75
2023-03-04T05:04:10.193Z,47.81
2023-03-04T05:05:10.131Z,48.71
2023-03-04T05:06:10.132Z,47.71
2023-03-04T05:07:10.185Z,47.57
2023-03-04T05:08:10.101Z,48.11
2023-03-04T05:09:10.099Z,49.78
2023-03-04T05:10:10.101Z,48.18
2023-03-04T05:11:10.116Z,49.57
2023-03-04T05:12:10.161Z,47.54
2023-03-04T05:13:10.115Z,47.55
2023-03-04T05:14:10.120Z,48.05
2023-03-04T05:15:10.084Z,49.96
2023-03-04T05:16:10.135Z,47.70
2023-03-04T05:17:10.086Z,47.73
2023-03-04T05:18:10.065Z,47.87
2023-03-04T05:19:10.693Z,48.60
2023-03-04T05:20:10.059Z,47.74
2023-03-04T05:21:10.048Z,47.43
2023-03-04T05:22:10.021Z,47.40
2023-03-04T05:23:10.045Z,47.55
2023-03-04T05:24:10.037Z,47.41
2023-03-04T05:25:10.011Z,47.40
2023-03-04T05:26:10.025Z,47.58
2023-03-04T05:27:10.034Z,48.74
2023-03-04T05:28:09.980Z,48.31
2023-03-04T05:29:10.009Z,48.52
2023-03-04T05:30:10.013Z,47.74
2023-03-04T05:31:09.976Z,47.43
2023-03-04T05:32:10.036Z,49.17
2023-03-04T05:33:09.966Z,48.35
2023-03-04T05:34:09.970Z,49.56
2023-03-04T05:35:09.992Z,47.46
2023-03-04T05:36:09.946Z,47.60
2023-03-04T05:37:09.966Z,48.25
2023-03-04T05:38:09.961Z,47.82
2023-03-04T05:39:09.911Z,48.02
2023-03-04T05:40:09.930Z,49.89
2023-03-04T05:41:09.953Z,48.29
2023-03-04T05:42:09.906Z,48.64
2023-03-04T05:43:09.973Z,49.54
2023-03-04T05:44:09.902Z,49.53
2023-03-04T05:45:09.891Z,50.97
2023-03-04T05:46:09.906Z,49.33
2023-03-04T05:47:09.912Z,47.37
2023-03-04T05:48:09.907Z,50.37
2023-03-04T05:49:09.861Z,50.13
2023-03-04T05:50:09.871Z,47.68
2023-03-04T05:51:09.867Z,47.17
2023-03-04T05:52:09.883Z,50.07
2023-03-04T05:53:10.838Z,48.68
2023-03-04T05:54:09.851Z,47.29
2023-03-04T05:55:09.825Z,49.14
2023-03-04T05:56:09.898Z,48.64
2023-03-04T05:57:09.821Z,47.14
2023-03-04T05:58:09.896Z,47.82
2023-03-04T05:59:09.809Z,49.73
2023-03-04T06:00:09.827Z,48.86
2023-03-04T06:01:09.817Z,50.80
2023-03-04T06:02:09.781Z,48.96
2023-03-04T06:03:09.795Z,48.79
2023-03-04T06:04:10.810Z,50.43
2023-03-04T06:05:09.760Z,51.19
2023-03-04T06:06:09.761Z,49.30
2023-03-04T06:07:09.773Z,48.24
2023-03-04T06:08:09.742Z,49.42
2023-03-04T06:09:09.815Z,48.83
2023-03-04T06:10:09.754Z,49.95
2023-03-04T06:11:09.760Z,47.55
2023-03-04T06:12:09.750Z,49.77
2023-03-04T06:13:09.714Z,48.74
2023-03-04T06:14:09.736Z,47.93
2023-03-04T06:15:09.694Z,47.66
2023-03-04T06:16:09.761Z,47.96
2023-03-04T06:17:10.670Z,48.86
2023-03-04T06:18:09.718Z,50.99
2023-03-04T06:19:09.704Z,47.14
2023-03-04T06:20:09.705Z,47.08
2023-03-04T06:21:09.656Z,49.14
2023-03-04T06:22:09.671Z,48.66
2023-03-04T06:23:09.758Z,47.60
2023-03-04T06:24:09.685Z,48.83
2023-03-04T06:25:09.685Z,53.57
2023-03-04T06:26:09.644Z,49.73
2023-03-04T06:27:09.626Z,49.13
2023-03-04T06:28:09.643Z,48.68
2023-03-04T06:29:09.616Z,48.23
2023-03-04T06:30:09.626Z,50.65
2023-03-04T06:31:09.656Z,49.64
2023-03-04T06:32:09.682Z,49.85
2023-03-04T06:33:09.615Z,51.11
2023-03-04T06:34:09.613Z,48.72
2023-03-04T06:35:09.603Z,47.75
2023-03-04T06:36:09.631Z,47.89
2023-03-04T06:37:09.632Z,49.47
2023-03-04T06:38:09.563Z,49.46
2023-03-04T06:39:09.547Z,48.95
2023-03-04T06:40:09.549Z,49.60
2023-03-04T06:41:09.549Z,48.50
2023-03-04T06:42:09.583Z,51.16
2023-03-04T06:43:09.544Z,49.46
2023-03-04T06:44:09.546Z,49.47
2023-03-04T06:45:09.507Z,49.12
2023-03-04T06:46:09.497Z,48.79
2023-03-04T06:47:09.528Z,47.99
2023-03-04T06:48:09.508Z,49.90
2023-03-04T06:49:09.490Z,54.30
2023-03-04T06:50:09.512Z,49.46
2023-03-04T06:51:09.474Z,49.01
2023-03-04T06:52:09.555Z,49.88
2023-03-04T06:53:09.479Z,48.07
2023-03-04T06:54:09.446Z,59.20
2023-03-04T06:55:09.437Z,48.22
2023-03-04T06:56:09.440Z,49.08
2023-03-04T06:57:10.472Z,49.73
2023-03-04T06:58:09.427Z,48.51
2023-03-04T06:59:09.450Z,52.23
2023-03-04T07:00:09.446Z,50.11
2023-03-04T07:01:09.487Z,48.84
2023-03-04T07:02:09.447Z,57.63
2023-03-04T07:03:09.418Z,57.89
2023-03-04T07:04:09.451Z,58.02
2023-03-04T07:05:09.400Z,51.88
2023-03-04T07:06:09.369Z,50.56
2023-03-04T07:07:09.427Z,53.63
2023-03-04T07:08:09.364Z,51.98
2023-03-04T07:09:09.390Z,53.02
2023-03-04T07:10:09.378Z,57.00
2023-03-04T07:11:09.358Z,48.44
2023-03-04T07:12:09.339Z,49.44
2023-03-04T07:13:09.330Z,49.02
2023-03-04T07:14:09.331Z,52.43
2023-03-04T07:15:09.324Z,49.49
2023-03-04T07:16:09.336Z,48.49
2023-03-04T07:17:09.311Z,49.84
2023-03-04T07:18:09.310Z,48.63
2023-03-04T07:19:09.314Z,50.94
2023-03-04T07:20:09.322Z,47.93
2023-03-04T07:21:09.276Z,50.10
2023-03-04T07:22:09.284Z,48.31
2023-03-04T07:23:09.280Z,51.34
2023-03-04T07:24:09.280Z,50.22
2023-03-04T07:25:09.275Z,48.28
2023-03-04T07:26:09.243Z,48.11
2023-03-04T07:27:09.227Z,53.73
2023-03-04T07:28:09.221Z,50.65
2023-03-04T07:29:09.203Z,50.05
2023-03-04T07:30:09.228Z,54.84
2023-03-04T07:31:09.207Z,51.73
2023-03-04T07:32:09.372Z,49.02
2023-03-04T07:33:09.219Z,47.79
2023-03-04T07:34:09.207Z,48.17
2023-03-04T07:35:09.269Z,49.68
2023-03-04T07:36:09.189Z,49.84
2023-03-04T07:37:09.199Z,49.86
2023-03-04T07:38:09.218Z,55.55
2023-03-04T07:39:09.144Z,53.50
2023-03-04T07:40:09.145Z,49.28
2023-03-04T07:41:09.155Z,47.15
2023-03-04T07:42:09.134Z,48.25
2023-03-04T07:43:09.127Z,48.34
2023-03-04T07:44:09.164Z,49.24
2023-03-04T07:45:09.124Z,48.86
2023-03-04T07:46:09.209Z,49.84
2023-03-04T07:47:09.118Z,50.96
2023-03-04T07:48:09.113Z,50.75
2023-03-04T07:49:09.075Z,52.08
2023-03-04T07:50:09.088Z,50.18
2023-03-04T07:51:09.084Z,51.43
2023-03-04T07:52:09.108Z,49.66
2023-03-04T07:53:09.095Z,51.75
2023-03-04T07:54:09.056Z,51.48
2023-03-04T07:55:09.056Z,50.47
2023-03-04T07:56:09.044Z,49.65
2023-03-04T07:57:09.084Z,51.18
2023-03-04T07:58:09.108Z,49.91
2023-03-04T07:59:09.049Z,50.91
2023-03-04T08:00:09.073Z,51.57
2023-03-04T08:01:09.009Z,49.85
2023-03-04T08:02:09.069Z,49.43
2023-03-04T08:03:09.050Z,51.02
2023-03-04T08:04:09.065Z,49.65
2023-03-04T08:05:09.018Z,50.64
2023-03-04T08:06:08.999Z,52.74
2023-03-04T08:07:09.012Z,51.02
2023-03-04T08:08:09.008Z,51.11
2023-03-04T08:09:09.054Z,53.01
2023-03-04T08:10:08.967Z,53.68
2023-03-04T08:11:08.948Z,51.37
2023-03-04T08:12:08.932Z,49.12
2023-03-04T08:13:08.991Z,53.39
2023-03-04T08:14:08.921Z,49.56
2023-03-04T08:15:08.969Z,49.36
2023-03-04T08:16:09.050Z,47.45
2023-03-04T08:17:08.927Z,49.24
2023-03-04T08:18:08.910Z,51.17
2023-03-04T08:19:08.939Z,48.42
2023-03-04T08:20:08.954Z,47.75
2023-03-04T08:21:08.893Z,52.29
2023-03-04T08:22:08.897Z,55.30
2023-03-04T08:23:08.892Z,48.30
2023-03-04T08:24:09.319Z,48.21
2023-03-04T08:25:09.083Z,50.15
2023-03-04T08:26:08.838Z,51.74
2023-03-04T08:27:09.906Z,50.23
2023-03-04T08:28:08.855Z,50.06
2023-03-04T08:29:08.880Z,48.82
2023-03-04T08:30:08.966Z,48.35
2023-03-04T08:31:08.991Z,52.39
2023-03-04T08:32:08.873Z,50.81
2023-03-04T08:33:08.812Z,49.87
2023-03-04T08:34:08.833Z,50.23
2023-03-04T08:35:08.825Z,49.59
2023-03-04T08:36:08.802Z,49.32
2023-03-04T08:37:08.833Z,48.57
2023-03-04T08:38:09.053Z,52.15
2023-03-04T08:39:08.800Z,50.43
2023-03-04T08:40:08.889Z,49.20
2023-03-04T08:41:08.850Z,49.52
2023-03-04T08:42:08.749Z,53.12
2023-03-04T08:43:08.767Z,54.99
2023-03-04T08:44:08.898Z,52.28
2023-03-04T08:45:08.830Z,50.37
2023-03-04T08:46:08.782Z,50.19
2023-03-04T08:47:08.715Z,51.31
2023-03-04T08:48:08.708Z,52.41
2023-03-04T08:49:08.692Z,51.34
2023-03-04T08:50:08.710Z,50.27
2023-03-04T08:51:08.684Z,52.14
2023-03-04T08:52:08.946Z,52.19
2023-03-04T08:53:08.669Z,48.59
2023-03-04T08:54:08.680Z,49.94
2023-03-04T08:55:08.645Z,48.89
2023-03-04T08:56:08.672Z,51.53
2023-03-04T08:57:08.656Z,51.47
2023-03-04T08:58:08.630Z,51.32
2023-03-04T08:59:08.669Z,51.02
2023-03-04T09:00:09.623Z,51.11
2023-03-04T09:01:08.639Z,53.28
2023-03-04T09:02:08.635Z,54.10
2023-03-04T09:03:08.610Z,53.75
2023-03-04T09:04:08.643Z,51.89
2023-03-04T09:05:08.636Z,51.49
2023-03-04T09:06:08.680Z,52.92
2023-03-04T09:07:08.630Z,49.75
2023-03-04T09:08:08.630Z,51.04
2023-03-04T09:09:08.617Z,50.97
2023-03-04T09:10:08.581Z,50.74
2023-03-04T09:11:08.566Z,52.65
2023-03-04T09:12:08.580Z,53.52
2023-03-04T09:13:08.562Z,52.53
2023-03-04T09:14:08.582Z,55.70
2023-03-04T09:15:11.652Z,53.95
2023-03-04T09:16:09.536Z,51.85
2023-03-04T09:17:08.521Z,50.76
2023-03-04T09:18:08.570Z,50.72
2023-03-04T09:19:08.559Z,50.24
2023-03-04T09:20:08.527Z,52.07
2023-03-04T09:21:08.499Z,51.93
2023-03-04T09:22:08.517Z,51.26
2023-03-04T09:23:08.535Z,52.78
2023-03-04T09:24:08.492Z,51.06
2023-03-04T09:25:12.201Z,52.89
2023-03-04T09:26:09.524Z,51.62
2023-03-04T09:27:08.495Z,53.70
2023-03-04T09:28:08.454Z,56.93
2023-03-04T09:29:08.519Z,54.27
2023-03-04T09:30:08.493Z,54.69
2023-03-04T09:31:08.490Z,52.42
2023-03-04T09:32:08.455Z,59.27
2023-03-04T09:33:08.547Z,57.42
2023-03-04T09:34:08.547Z,66.30
2023-03-04T09:35:08.472Z,67.91
2023-03-04T09:36:08.421Z,59.44
2023-03-04T09:37:08.455Z,61.20
2023-03-04T09:38:08.439Z,70.12
2023-03-04T09:39:09.432Z,71.64
2023-03-04T09:40:08.436Z,65.38
2023-03-04T09:41:08.377Z,70.71
2023-03-04T09:42:08.383Z,57.52
2023-03-04T09:43:08.394Z,57.09
2023-03-04T09:44:08.385Z,52.46
2023-03-04T09:45:08.354Z,51.45
2023-03-04T09:46:09.494Z,52.43
2023-03-04T09:47:08.346Z,51.79
2023-03-04T09:48:08.443Z,50.21
2023-03-04T09:49:08.375Z,52.05
2023-03-04T09:50:08.388Z,52.22
2023-03-04T09:51:08.331Z,50.93
2023-03-04T09:52:08.334Z,49.11
2023-03-04T09:53:08.368Z,48.56
2023-03-04T09:54:08.389Z,52.22
2023-03-04T09:55:08.341Z,49.88
2023-03-04T09:56:08.330Z,56.04
2023-03-04T09:57:08.329Z,59.87
2023-03-04T09:58:08.326Z,58.83
2023-03-04T09:59:08.317Z,48.88
2023-03-04T10:00:08.360Z,49.43
2023-03-04T10:01:08.269Z,53.35
2023-03-04T10:02:08.276Z,58.59
2023-03-04T10:03:08.352Z,59.95
2023-03-04T10:04:08.252Z,57.55
2023-03-04T10:05:08.291Z,50.70
2023-03-04T10:06:08.249Z,51.93
2023-03-04T10:07:08.243Z,51.11
2023-03-04T10:08:08.243Z,52.22
2023-03-04T10:09:08.262Z,51.78
2023-03-04T10:10:08.223Z,52.00
2023-03-04T10:11:08.246Z,52.34
2023-03-04T10:12:08.232Z,48.84
2023-03-04T10:13:08.557Z,53.45
2023-03-04T10:14:08.198Z,50.52
2023-03-04T10:15:08.196Z,50.77
2023-03-04T10:16:08.281Z,50.82
2023-03-04T10:17:08.191Z,50.53
2023-03-04T10:18:08.223Z,50.16
2023-03-04T10:19:08.201Z,48.87
2023-03-04T10:20:08.243Z,52.55
2023-03-04T10:21:08.187Z,53.92
2023-03-04T10:22:08.179Z,50.88
2023-03-04T10:23:08.204Z,55.31
2023-03-04T10:24:08.136Z,51.99
2023-03-04T10:25:08.140Z,50.39
2023-03-04T10:26:08.135Z,50.36
2023-03-04T10:27:08.179Z,50.00
2023-03-04T10:28:08.155Z,52.84
2023-03-04T10:29:08.124Z,49.60
2023-03-04T10:30:08.168Z,51.02
2023-03-04T10:31:08.163Z,51.09
2023-03-04T10:32:08.136Z,53.16
2023-03-04T10:33:08.124Z,51.27
2023-03-04T10:34:08.099Z,51.65
2023-03-04T10:35:08.082Z,62.10
2023-03-04T10:36:08.064Z,61.54
2023-03-04T10:37:08.141Z,49.75
2023-03-04T10:38:08.090Z,57.69
2023-03-04T10:39:08.042Z,70.04
2023-03-04T10:40:08.045Z,53.30
2023-03-04T10:41:08.033Z,49.76
2023-03-04T10:42:08.133Z,50.50
2023-03-04T10:43:08.042Z,52.24
2023-03-04T10:44:08.052Z,54.64
2023-03-04T10:45:08.019Z,51.62
2023-03-04T10:46:08.161Z,52.21
2023-03-04T10:47:08.010Z,51.54
2023-03-04T10:48:08.010Z,54.37
2023-03-04T10:49:08.022Z,51.87
2023-03-04T10:50:08.008Z,49.41
2023-03-04T10:51:08.029Z,51.16
2023-03-04T10:52:08.048Z,51.19
2023-03-04T10:53:07.992Z,61.18
2023-03-04T10:54:07.995Z,65.97
2023-03-04T10:55:07.993Z,63.80
2023-03-04T10:56:07.949Z,60.43
2023-03-04T10:57:07.956Z,51.56
2023-03-04T10:58:08.056Z,54.72
2023-03-04T10:59:07.944Z,50.53
2023-03-04T11:00:07.948Z,50.26
2023-03-04T11:01:08.030Z,51.53
2023-03-04T11:02:07.924Z,50.64
2023-03-04T11:03:07.945Z,49.56
2023-03-04T11:04:07.908Z,50.05
2023-03-04T11:05:07.965Z,50.12
2023-03-04T11:06:07.893Z,72.08
2023-03-04T11:07:07.874Z,74.32
2023-03-04T11:08:07.862Z,61.04
2023-03-04T11:09:07.898Z,50.29
2023-03-04T11:10:07.891Z,53.64
2023-03-04T11:11:08.038Z,50.80
2023-03-04T11:12:07.868Z,49.37
2023-03-04T11:13:07.905Z,51.16
2023-03-04T11:14:07.907Z,69.53
2023-03-04T11:15:07.846Z,63.38
2023-03-04T11:16:08.027Z,50.95
2023-03-04T11:17:07.816Z,50.24
2023-03-04T11:18:07.796Z,51.40
2023-03-04T11:19:07.827Z,53.17
2023-03-04T11:20:07.815Z,51.54
2023-03-04T11:21:07.854Z,49.94
2023-03-04T11:22:07.914Z,53.29
2023-03-04T11:23:07.833Z,63.15
2023-03-04T11:24:13.333Z,67.65
2023-03-04T11:25:08.828Z,69.06
2023-03-04T11:26:08.775Z,67.46
2023-03-04T11:27:07.822Z,69.02
2023-03-04T11:28:09.342Z,66.72
2023-03-04T11:29:07.790Z,68.39
2023-03-04T11:30:07.752Z,68.98
2023-03-04T11:31:07.811Z,70.16
2023-03-04T11:32:07.948Z,73.52
2023-03-04T11:33:07.733Z,68.99
2023-03-04T11:34:07.750Z,51.65
2023-03-04T11:35:07.761Z,53.56
2023-03-04T11:36:07.732Z,50.30
2023-03-04T11:37:07.792Z,52.97
2023-03-04T11:38:07.791Z,50.78
2023-03-04T11:39:07.784Z,50.25
2023-03-04T11:40:07.714Z,52.40
2023-03-04T11:41:07.750Z,50.24
2023-03-04T11:42:07.766Z,51.84
2023-03-04T11:43:07.732Z,49.71
2023-03-04T11:44:07.710Z,49.94
2023-03-04T11:45:18.317Z,52.70
2023-03-04T11:46:09.706Z,49.79
2023-03-04T11:47:07.668Z,49.48
2023-03-04T11:48:07.786Z,51.29
2023-03-04T11:49:07.686Z,49.13
2023-03-04T11:50:07.660Z,54.11
2023-03-04T11:51:07.652Z,52.53
2023-03-04T11:52:07.681Z,51.62
2023-03-04T11:53:07.676Z,51.02
2023-03-04T11:54:07.650Z,48.02
2023-03-04T11:55:07.686Z,49.84
2023-03-04T11:56:07.945Z,49.58
2023-03-04T11:57:07.633Z,53.28
2023-03-04T11:58:07.642Z,50.02
2023-03-04T11:59:07.663Z,53.93
2023-03-04T12:00:07.621Z,60.66
2023-03-04T12:01:07.626Z,75.81
2023-03-04T12:02:07.591Z,65.19
2023-03-04T12:03:07.597Z,59.95
2023-03-04T12:04:07.772Z,50.44
2023-03-04T12:05:07.612Z,47.99
2023-03-04T12:06:07.616Z,67.74
2023-03-04T12:07:07.669Z,71.10
2023-03-04T12:08:07.562Z,66.42
2023-03-04T12:09:07.589Z,68.93
2023-03-04T12:10:07.579Z,70.46
2023-03-04T12:11:07.572Z,64.74
2023-03-04T12:12:07.539Z,65.06
2023-03-04T12:13:07.537Z,61.20
2023-03-04T12:14:07.534Z,50.48
2023-03-04T12:15:07.564Z,59.84
2023-03-04T12:16:07.568Z,51.33
2023-03-04T12:17:07.511Z,53.94
2023-03-04T12:18:07.516Z,49.79
2023-03-04T12:19:07.790Z,51.47
2023-03-04T12:20:07.536Z,48.19
2023-03-04T12:21:07.508Z,50.28
2023-03-04T12:22:07.507Z,51.26
2023-03-04T12:23:07.615Z,53.29
2023-03-04T12:24:07.501Z,50.60
2023-03-04T12:25:07.648Z,51.59
2023-03-04T12:26:07.505Z,52.65
2023-03-04T12:27:07.465Z,53.96
2023-03-04T12:28:07.509Z,53.24
2023-03-04T12:29:07.453Z,49.22
2023-03-04T12:30:07.450Z,52.67
2023-03-04T12:31:08.529Z,60.47
2023-03-04T12:32:07.527Z,60.26
2023-03-04T12:33:07.430Z,58.18
2023-03-04T12:34:07.420Z,56.83
2023-03-04T12:35:07.581Z,58.38
2023-03-04T12:36:07.428Z,52.69
2023-03-04T12:37:07.519Z,52.00
2023-03-04T12:38:07.409Z,50.06
2023-03-04T12:39:07.384Z,51.41
2023-03-04T12:40:07.394Z,51.48
2023-03-04T12:41:07.438Z,50.98
2023-03-04T12:42:07.379Z,52.46
2023-03-04T12:43:07.434Z,50.64
2023-03-04T12:44:07.365Z,55.60
2023-03-04T12:45:07.377Z,51.71
2023-03-04T12:46:07.434Z,52.14
2023-03-04T12:47:07.365Z,51.03
2023-03-04T12:48:07.431Z,52.87
2023-03-04T12:49:07.370Z,51.09
2023-03-04T12:50:07.356Z,51.14
2023-03-04T12:51:07.346Z,50.26
2023-03-04T12:52:07.322Z,51.31